createdAt,value
2019-02-14T00:02:43.918Z,13.53
2019-02-14T00:05:48.289Z,13.57
2019-02-14T00:08:52.678Z,14.23
2019-02-14T00:11:56.941Z,14.60
2019-02-14T00:15:01.362Z,13.47
2019-02-14T00:18:05.681Z,12.53
2019-02-14T00:21:10.018Z,15.60
2019-02-14T00:24:14.304Z,14.40
2019-02-14T00:27:18.592Z,15.10
2019-02-14T00:30:22.882Z,16.43
2019-02-14T00:33:27.460Z,16.10
2019-02-14T00:36:31.792Z,16.87
2019-02-14T00:39:38.450Z,16.67
2019-02-14T00:42:42.726Z,18.70
2019-02-14T00:45:47.005Z,15.93
2019-02-14T00:48:51.311Z,13.57
2019-02-14T00:51:55.665Z,18.67
2019-02-14T00:55:04.647Z,16.90
2019-02-14T00:58:10.650Z,20.80
2019-02-14T01:01:14.953Z,21.93
2019-02-14T01:04:19.457Z,19.50
2019-02-14T01:07:23.739Z,20.93
2019-02-14T01:10:28.015Z,21.00
2019-02-14T01:13:32.495Z,19.30
2019-02-14T01:16:36.918Z,18.73
2019-02-14T01:19:41.235Z,20.17
2019-02-14T01:22:45.519Z,20.33
2019-02-14T01:25:49.785Z,17.73
2019-02-14T01:28:54.073Z,19.33
2019-02-14T01:31:58.335Z,18.60
2019-02-14T01:35:02.781Z,20.53
2019-02-14T01:38:07.047Z,19.77
2019-02-14T01:41:11.333Z,19.97
2019-02-14T01:44:15.599Z,20.57
2019-02-14T01:47:19.997Z,20.23
2019-02-14T01:50:24.277Z,20.83
2019-02-14T01:53:28.547Z,19.23
2019-02-14T01:56:36.030Z,19.70
2019-02-14T01:59:40.329Z,19.97
2019-02-14T02:02:44.855Z,21.33
2019-02-14T02:05:51.010Z,21.70
2019-02-14T02:08:55.216Z,22.60
2019-02-14T02:12:01.379Z,22.93
2019-02-14T02:15:06.391Z,21.23
2019-02-14T02:18:10.680Z,23.60
2019-02-14T02:21:14.953Z,23.67
2019-02-14T02:24:19.595Z,22.97
2019-02-14T02:27:24.312Z,23.67
2019-02-14T02:30:28.618Z,23.77
2019-02-14T02:33:32.891Z,24.23
2019-02-14T02:36:37.180Z,23.33
2019-02-14T02:39:41.461Z,24.93
2019-02-14T02:42:47.461Z,26.40
2019-02-14T02:45:51.902Z,26.73
2019-02-14T02:48:56.204Z,27.20
2019-02-14T02:52:00.493Z,27.17
2019-02-14T02:55:07.523Z,27.63
2019-02-14T02:58:11.798Z,26.00
2019-02-14T03:01:16.143Z,28.23
2019-02-14T03:04:20.424Z,29.30
2019-02-14T03:07:24.714Z,26.37
2019-02-14T03:10:29.415Z,29.30
2019-02-14T03:13:33.688Z,28.90
2019-02-14T03:16:38.437Z,31.03
2019-02-14T03:19:42.854Z,30.37
2019-02-14T03:22:47.225Z,29.80
2019-02-14T03:25:51.592Z,31.13
2019-02-14T03:28:55.866Z,30.00
2019-02-14T03:32:00.273Z,35.17
2019-02-14T03:35:04.773Z,34.47
2019-02-14T03:38:09.120Z,30.83
2019-02-14T03:41:13.389Z,30.80
2019-02-14T03:44:17.677Z,33.00
2019-02-14T03:47:21.981Z,30.50
2019-02-14T03:50:26.252Z,25.50
2019-02-14T03:53:30.558Z,35.17
2019-02-14T03:56:34.856Z,33.70
2019-02-14T03:59:39.143Z,30.23
2019-02-14T04:02:46.288Z,29.07
2019-02-14T04:05:53.701Z,29.03
2019-02-14T04:08:58.517Z,29.27
2019-02-14T04:12:02.810Z,28.57
2019-02-14T04:15:08.739Z,23.23
2019-02-14T04:18:13.040Z,29.30
2019-02-14T04:21:17.323Z,27.17
2019-02-14T04:24:21.820Z,28.00
2019-02-14T04:27:29.095Z,27.33
2019-02-14T04:30:33.493Z,25.80
2019-02-14T04:33:40.578Z,27.90
2019-02-14T04:36:45.002Z,26.13
2019-02-14T04:39:49.353Z,24.17
2019-02-14T04:42:53.994Z,25.93
2019-02-14T04:45:58.267Z,24.90
2019-02-14T04:49:02.544Z,29.67
2019-02-14T04:52:07.038Z,27.93
2019-02-14T04:55:11.627Z,28.77
2019-02-14T04:58:18.975Z,30.73
2019-02-14T05:01:23.264Z,34.50
2019-02-14T05:04:27.554Z,30.40
2019-02-14T05:07:31.852Z,35.37
2019-02-14T05:10:36.153Z,31.83
2019-02-14T05:13:40.461Z,29.20
2019-02-14T05:16:44.745Z,29.97
2019-02-14T05:19:49.164Z,31.20
2019-02-14T05:22:53.661Z,29.40
2019-02-14T05:25:57.932Z,30.47
2019-02-14T05:29:02.412Z,30.37
2019-02-14T05:32:06.690Z,34.27
2019-02-14T05:35:10.978Z,32.00
2019-02-14T05:38:15.294Z,34.60
2019-02-14T05:41:19.668Z,34.97
2019-02-14T05:44:24.032Z,34.00
2019-02-14T05:47:28.320Z,34.63
2019-02-14T05:50:32.730Z,32.37
2019-02-14T05:53:37.038Z,33.00
2019-02-14T05:56:41.420Z,34.77
2019-02-14T05:59:45.730Z,34.00
2019-02-14T06:02:50.142Z,33.93
2019-02-14T06:05:56.810Z,34.13
2019-02-14T06:09:01.106Z,35.50
2019-02-14T06:12:05.375Z,34.73
2019-02-14T06:15:10.341Z,33.27
2019-02-14T06:18:14.684Z,32.67
2019-02-14T06:21:21.795Z,32.10
2019-02-14T06:24:28.894Z,34.70
2019-02-14T06:27:33.185Z,32.87
2019-02-14T06:30:37.468Z,33.47
2019-02-14T06:33:41.769Z,32.97
2019-02-14T06:36:46.058Z,34.27
2019-02-14T06:39:50.360Z,32.87
2019-02-14T06:42:54.628Z,31.77
2019-02-14T06:46:00.042Z,35.07
2019-02-14T06:49:04.324Z,33.23
2019-02-14T06:52:08.592Z,31.20
2019-02-14T06:55:12.871Z,33.97
2019-02-14T06:58:17.187Z,33.17
2019-02-14T07:01:21.666Z,34.53
2019-02-14T07:04:26.040Z,34.27
2019-02-14T07:07:33.274Z,35.90
2019-02-14T07:10:37.569Z,31.40
2019-02-14T07:13:41.843Z,35.80
2019-02-14T07:16:46.137Z,35.93
2019-02-14T07:19:50.433Z,34.47
2019-02-14T07:22:54.794Z,34.73
2019-02-14T07:25:59.111Z,34.97
2019-02-14T07:29:03.681Z,33.87
2019-02-14T07:32:07.956Z,35.03
2019-02-14T07:35:12.264Z,32.77
2019-02-14T07:38:19.872Z,34.13
2019-02-14T07:41:24.147Z,29.93
2019-02-14T07:44:31.331Z,35.30
2019-02-14T07:47:35.614Z,36.40
2019-02-14T07:50:39.925Z,36.83
2019-02-14T07:53:44.324Z,38.43
2019-02-14T07:56:48.650Z,40.00
2019-02-14T07:59:54.150Z,38.27
2019-02-14T08:02:58.514Z,42.13
2019-02-14T08:06:02.798Z,42.70
2019-02-14T08:09:07.205Z,41.70
2019-02-14T08:12:11.524Z,40.07
2019-02-14T08:15:17.854Z,39.17
2019-02-14T08:18:22.149Z,37.57
2019-02-14T08:21:26.503Z,42.60
2019-02-14T08:24:30.849Z,44.30
2019-02-14T08:27:35.148Z,44.63
2019-02-14T08:30:39.592Z,44.73
2019-02-14T08:33:43.914Z,42.97
2019-02-14T08:36:48.290Z,43.83
2019-02-14T08:39:52.568Z,41.10
2019-02-14T08:42:58.546Z,43.07
2019-02-14T08:46:02.856Z,44.43
2019-02-14T08:49:07.170Z,44.87
2019-02-14T08:52:13.012Z,43.73
2019-02-14T08:55:20.437Z,43.60
2019-02-14T08:58:24.724Z,46.03
2019-02-14T09:01:29.008Z,45.77
2019-02-14T09:04:33.420Z,47.30
2019-02-14T09:07:37.848Z,47.00
2019-02-14T09:10:42.165Z,47.27
2019-02-14T09:13:46.462Z,46.10
2019-02-14T09:16:50.896Z,44.20
2019-02-14T09:19:55.193Z,48.83
2019-02-14T09:22:59.485Z,44.63
2019-02-14T09:26:03.853Z,42.90
2019-02-14T09:29:13.792Z,43.97
2019-02-14T09:32:18.894Z,45.37
2019-02-14T09:35:23.289Z,45.77
2019-02-14T09:38:29.684Z,42.30
2019-02-14T09:41:34.099Z,48.27
2019-02-14T09:44:38.405Z,48.80
2019-02-14T09:47:42.672Z,49.40
2019-02-14T09:50:47.062Z,48.80
2019-02-14T09:53:52.730Z,46.10
2019-02-14T09:56:57.129Z,45.93
2019-02-14T10:00:01.495Z,48.37
2019-02-14T10:03:05.854Z,49.17
2019-02-14T10:06:10.143Z,45.93
2019-02-14T10:09:14.489Z,46.73
2019-02-14T10:12:18.767Z,48.07
2019-02-14T10:15:23.036Z,45.03
2019-02-14T10:18:27.335Z,41.23
2019-02-14T10:21:31.741Z,44.43
2019-02-14T10:24:37.074Z,44.97
2019-02-14T10:27:44.037Z,43.10
2019-02-14T10:30:48.337Z,42.53
2019-02-14T10:33:52.611Z,40.47
2019-02-14T10:36:57.050Z,38.03
2019-02-14T10:40:01.420Z,38.37
2019-02-14T10:43:05.922Z,41.33
2019-02-14T10:46:13.151Z,38.77
2019-02-14T10:49:17.605Z,39.53
2019-02-14T10:52:21.897Z,39.80
2019-02-14T10:55:26.221Z,36.50
2019-02-14T10:58:30.511Z,38.43
2019-02-14T11:01:35.074Z,37.00
2019-02-14T11:04:39.455Z,34.90
2019-02-14T11:07:43.760Z,38.40
2019-02-14T11:10:48.243Z,37.00
2019-02-14T11:13:52.627Z,39.00
2019-02-14T11:16:56.928Z,34.87
2019-02-14T11:20:01.507Z,39.57
2019-02-14T11:23:06.778Z,39.70
2019-02-14T11:26:11.188Z,38.67
2019-02-14T11:29:15.486Z,39.73
2019-02-14T11:32:19.853Z,39.57
2019-02-14T11:35:24.150Z,40.90
2019-02-14T11:38:28.472Z,37.73
2019-02-14T11:41:32.912Z,38.27
2019-02-14T11:44:39.786Z,40.70
2019-02-14T11:47:43.354Z,41.00
2019-02-14T11:50:47.695Z,40.40
2019-02-14T11:53:52.068Z,37.73
2019-02-14T11:56:57.566Z,36.20
2019-02-14T12:00:02.066Z,36.13
2019-02-14T12:03:06.402Z,36.37
2019-02-14T12:06:10.784Z,36.37
2019-02-14T12:09:15.091Z,37.77
2019-02-14T12:12:20.814Z,35.20
2019-02-14T12:15:25.716Z,36.97
2019-02-14T12:18:30.058Z,36.20
2019-02-14T12:21:34.449Z,36.47
2019-02-14T12:24:38.826Z,37.57
2019-02-14T12:27:43.095Z,36.27
2019-02-14T12:30:47.698Z,36.50
2019-02-14T12:33:55.001Z,34.57
2019-02-14T12:36:59.274Z,35.07
2019-02-14T12:40:03.880Z,32.83
2019-02-14T12:43:08.176Z,36.27
2019-02-14T12:46:12.475Z,33.87
2019-02-14T12:49:16.943Z,37.73
2019-02-14T12:52:21.238Z,37.53
2019-02-14T12:55:25.544Z,36.70
2019-02-14T12:58:30.315Z,35.47
2019-02-14T13:01:34.950Z,37.33
2019-02-14T13:04:39.260Z,36.53
2019-02-14T13:07:45.088Z,36.30
2019-02-14T13:10:49.393Z,38.57
2019-02-14T13:13:53.927Z,38.43
2019-02-14T13:16:58.256Z,40.00
2019-02-14T13:20:02.699Z,37.37
2019-02-14T13:23:08.067Z,37.20
2019-02-14T13:26:12.408Z,33.03
2019-02-14T13:29:16.681Z,37.63
2019-02-14T13:32:21.112Z,31.40
2019-02-14T13:35:25.662Z,35.00
2019-02-14T13:38:32.253Z,35.87
2019-02-14T13:41:36.572Z,37.03
2019-02-14T13:44:42.986Z,40.17
2019-02-14T13:47:47.071Z,41.27
2019-02-14T13:50:53.931Z,40.87
2019-02-14T13:54:01.242Z,39.00
2019-02-14T13:57:05.889Z,39.67
2019-02-14T14:00:19.575Z,37.97
2019-02-14T14:03:26.608Z,34.33
2019-02-14T14:06:30.959Z,38.00
2019-02-14T14:09:38.716Z,36.83
2019-02-14T14:12:42.319Z,39.33
2019-02-14T14:15:46.955Z,40.33
2019-02-14T14:18:51.274Z,39.20
2019-02-14T14:21:55.581Z,40.67
2019-02-14T14:25:00.002Z,37.70
2019-02-14T14:28:04.439Z,39.73
2019-02-14T14:31:08.698Z,42.10
2019-02-14T14:34:13.001Z,41.17
2019-02-14T14:37:17.280Z,40.67
2019-02-14T14:40:21.900Z,41.17
2019-02-14T14:43:32.316Z,44.33
2019-02-14T14:46:51.575Z,39.53
2019-02-14T14:49:56.002Z,41.30
2019-02-14T14:53:00.407Z,40.50
2019-02-14T14:56:04.832Z,41.27
2019-02-14T14:59:09.139Z,36.77
2019-02-14T15:02:13.437Z,40.87
2019-02-14T15:05:17.726Z,43.40
2019-02-14T15:08:22.037Z,43.37
2019-02-14T15:11:26.321Z,42.00
2019-02-14T15:14:30.998Z,37.30
2019-02-14T15:17:35.311Z,33.73
2019-02-14T15:20:39.711Z,35.80
2019-02-14T15:23:44.131Z,34.80
2019-02-14T15:26:48.430Z,32.63
2019-02-14T15:29:52.815Z,33.53
2019-02-14T15:32:58.401Z,34.53
2019-02-14T15:36:02.710Z,31.13
2019-02-14T15:39:08.240Z,31.17
2019-02-14T15:42:12.685Z,32.23
2019-02-14T15:45:17.196Z,27.40
2019-02-14T15:48:21.489Z,31.07
2019-02-14T15:51:25.899Z,30.23
2019-02-14T15:54:31.374Z,27.50
2019-02-14T15:57:36.423Z,30.40
2019-02-14T16:00:40.848Z,31.60
2019-02-14T16:03:45.178Z,34.47
2019-02-14T16:06:50.559Z,30.93
2019-02-14T16:09:55.490Z,31.30
2019-02-14T16:12:59.795Z,38.00
2019-02-14T16:16:04.084Z,36.87
2019-02-14T16:19:09.273Z,36.57
2019-02-14T16:22:15.713Z,34.27
2019-02-14T16:25:20.681Z,37.03
2019-02-14T16:28:24.983Z,37.33
2019-02-14T16:31:29.404Z,37.30
2019-02-14T16:34:33.887Z,35.73
2019-02-14T16:37:38.184Z,37.33
2019-02-14T16:40:42.580Z,36.80
2019-02-14T16:43:47.022Z,37.90
2019-02-14T16:46:51.430Z,35.30
2019-02-14T16:49:57.231Z,34.43
2019-02-14T16:53:01.694Z,36.23
2019-02-14T16:56:05.985Z,33.37
2019-02-14T16:59:10.282Z,37.50
2019-02-14T17:02:14.690Z,36.83
2019-02-14T17:05:19.015Z,38.23
2019-02-14T17:08:23.404Z,33.63
2019-02-14T17:11:28.002Z,35.57
2019-02-14T17:14:32.536Z,35.10
2019-02-14T17:17:38.068Z,33.27
2019-02-14T17:20:42.373Z,33.90
2019-02-14T17:23:49.484Z,31.13
2019-02-14T17:26:53.774Z,34.07
2019-02-14T17:29:58.080Z,31.53
2019-02-14T17:33:02.414Z,31.63
2019-02-14T17:36:06.928Z,31.10
2019-02-14T17:39:11.336Z,36.73
2019-02-14T17:42:18.394Z,30.17
2019-02-14T17:45:22.763Z,35.80
2019-02-14T17:48:27.072Z,31.00
2019-02-14T17:51:31.374Z,34.10
2019-02-14T17:54:37.432Z,34.03
2019-02-14T17:57:41.768Z,33.77
2019-02-14T18:00:46.131Z,32.27
2019-02-14T18:03:50.636Z,34.07
2019-02-14T18:06:54.919Z,29.57
2019-02-14T18:09:59.327Z,31.37
2019-02-14T18:13:03.613Z,25.87
2019-02-14T18:16:08.071Z,28.60
2019-02-14T18:19:12.446Z,29.23
2019-02-14T18:22:16.943Z,30.10
2019-02-14T18:25:21.303Z,28.30
2019-02-14T18:28:25.775Z,30.17
2019-02-14T18:31:30.083Z,28.33
2019-02-14T18:34:34.556Z,26.07
2019-02-14T18:37:38.856Z,29.43
2019-02-14T18:40:43.159Z,28.27
2019-02-14T18:43:50.645Z,31.63
2019-02-14T18:46:55.211Z,26.17
2019-02-14T18:49:59.575Z,29.70
2019-02-14T18:53:04.008Z,28.20
2019-02-14T18:56:08.323Z,28.50
2019-02-14T18:59:12.654Z,25.80
2019-02-14T19:02:17.043Z,31.33
2019-02-14T19:05:21.456Z,25.10
2019-02-14T19:08:25.766Z,21.13
2019-02-14T19:11:30.058Z,29.37
2019-02-14T19:14:34.480Z,27.40
2019-02-14T19:17:38.956Z,27.67
2019-02-14T19:20:43.358Z,26.80
2019-02-14T19:23:49.078Z,28.83
2019-02-14T19:26:53.598Z,30.53
2019-02-14T19:29:58.008Z,28.07
2019-02-14T19:33:02.467Z,28.97
2019-02-14T19:36:06.904Z,27.13
2019-02-14T19:39:11.490Z,28.00
2019-02-14T19:42:16.045Z,29.57
2019-02-14T19:45:20.502Z,28.73
2019-02-14T19:48:25.014Z,30.23
2019-02-14T19:51:29.469Z,32.23
2019-02-14T19:54:33.851Z,30.00
2019-02-14T19:57:38.561Z,32.03
2019-02-14T20:00:43.178Z,31.17
2019-02-14T20:03:47.864Z,30.53
2019-02-14T20:06:52.526Z,32.30
2019-02-14T20:09:57.020Z,31.73
2019-02-14T20:13:01.547Z,33.90
2019-02-14T20:16:06.277Z,30.47
2019-02-14T20:19:10.983Z,32.63
2019-02-14T20:22:15.527Z,32.97
2019-02-14T20:25:21.362Z,30.07
2019-02-14T20:28:26.082Z,31.13
2019-02-14T20:31:30.846Z,30.33
2019-02-14T20:34:35.336Z,31.93
2019-02-14T20:37:39.811Z,32.07
2019-02-14T20:40:47.208Z,32.93
2019-02-14T20:43:51.591Z,33.13
2019-02-14T20:46:56.113Z,34.97
2019-02-14T20:50:00.717Z,35.27
2019-02-14T20:53:05.338Z,36.50
2019-02-14T20:56:12.514Z,35.93
2019-02-14T20:59:16.838Z,36.60
2019-02-14T21:02:21.158Z,32.30
2019-02-14T21:05:25.601Z,33.57
2019-02-14T21:08:29.974Z,34.03
2019-02-14T21:11:35.869Z,34.03
2019-02-14T21:14:40.967Z,34.77
2019-02-14T21:17:45.378Z,33.83
2019-02-14T21:20:51.072Z,35.30
2019-02-14T21:23:55.394Z,35.53
2019-02-14T21:27:00.318Z,33.23
2019-02-14T21:30:05.899Z,37.17
2019-02-14T21:33:10.281Z,34.73
2019-02-14T21:36:14.837Z,32.40
2019-02-14T21:39:21.081Z,32.37
2019-02-14T21:42:29.267Z,31.73
2019-02-14T21:45:32.859Z,31.77
2019-02-14T21:48:37.160Z,34.80
2019-02-14T21:51:41.481Z,32.80
2019-02-14T21:54:45.825Z,32.87
2019-02-14T21:57:50.325Z,32.70
2019-02-14T22:00:54.626Z,35.93
2019-02-14T22:04:03.426Z,33.13
2019-02-14T22:07:07.974Z,37.17
2019-02-14T22:10:12.702Z,32.00
2019-02-14T22:13:17.079Z,36.27
2019-02-14T22:16:21.540Z,34.50
2019-02-14T22:19:25.925Z,36.23
2019-02-14T22:22:30.341Z,36.47
2019-02-14T22:25:34.755Z,32.10
2019-02-14T22:28:39.153Z,34.17
2019-02-14T22:31:43.430Z,29.23
2019-02-14T22:34:48.444Z,32.40
2019-02-14T22:37:52.745Z,35.00
2019-02-14T22:40:57.156Z,35.97
2019-02-14T22:44:01.535Z,28.93
2019-02-14T22:47:05.925Z,31.37
2019-02-14T22:50:10.572Z,26.70
2019-02-14T22:53:15.058Z,26.13
2019-02-14T22:56:19.564Z,28.87
2019-02-14T22:59:23.870Z,31.00
2019-02-14T23:02:28.195Z,33.17
2019-02-14T23:05:32.825Z,32.93
2019-02-14T23:08:37.116Z,29.77
2019-02-14T23:11:41.430Z,30.40
2019-02-14T23:14:45.740Z,32.03
2019-02-14T23:17:50.058Z,31.60
2019-02-14T23:20:54.379Z,29.77
2019-02-14T23:24:01.887Z,29.03
2019-02-14T23:27:06.159Z,30.90
2019-02-14T23:30:10.598Z,28.20
2019-02-14T23:33:14.865Z,26.80
2019-02-14T23:36:19.164Z,27.83
2019-02-14T23:39:24.346Z,27.07
2019-02-14T23:42:28.646Z,26.83
2019-02-14T23:45:32.937Z,25.83
2019-02-14T23:48:37.288Z,26.93
2019-02-14T23:51:41.805Z,28.30
2019-02-14T23:54:46.335Z,26.83
2019-02-14T23:57:50.636Z,27.67
